Marshall, MO

7:12 AM CST on December 07, 2016 (GMT -0600)
North Marshall | | Change Station

Elev 725 ft 39.15 °N, 93.18 °W | Updated 25 seconds ago

Overcast
Overcast
30.9 °F
Feels Like 31 °F
N
0.0
Wind Variable Wind from SSW
Gusts 0.0 mph

Today
High -- | Low -- °F
--% Chance of Precip.
Yesterday
High -- | Low -- °F
Precip. -- in
Pressure 30.23 in
Visibility 10.0 miles
Clouds Overcast 9000 ft
Windchill 31 °F
Dew Point 4 °F
Humidity 31%
Rainfall 0.00 in
Snow Depth Not available.
7:19 AM 4:49 PM
First Quarter, 52% visible
METAR KDMO 071253Z AUTO 36003KT 10SM OVC090 M01/M08 A3020 RMK AO2 SLP236 T10061083
Pressure 30.23 in
Visibility 10.0 miles
Clouds Overcast 9000 ft
Windchill 31 °F
Dew Point 4 °F
Humidity 31%
Rainfall 0.00 in
Snow Depth Not available.
7:19 AM 4:49 PM
First Quarter, 52% visible
METAR KDMO 071253Z AUTO 36003KT 10SM OVC090 M01/M08 A3020 RMK AO2 SLP236 T10061083

10-Day Weather Forecast

Almanac

Astronomy

Dec. 07, 2016 Rise Set
Actual Time
Civil Twilight
Nautical Twilight
Astronomical Twilight
Moon
Length of Visible Light
Length of Day
Tomorrow will be .
, % of the Moon is Illuminated

Today's Extremes

State Highs State Lows

Community

WunderPhotos

Upload Photos

1,956,112 photos uploaded!

WunderBlog® & News

Nearby

Air Quality

  Air Quality AQ Index Pollutant
Not available.

Snow Depth

Station Depth Elevation

Earthquake Activity

City Distance Mag. Time & Date
Minimum magnitude displayed is 2.5.

Coastal Water Temperatures

Place Temperature

Stations

Nearby Weather Stations

Station Location Temp. Windchill Dew Point Humidity Wind Precip. Elev Updated Type
                   

Watches & Warnings

There are currently no watches in effect.